Time;durP1;ratioP1;P1;durP2;ratioP2;P2;SDS_P1;SDS_P2;PMS_P1;PMS_P2;Temp;Humidity;BMP_temperature;BMP_pressure;BME280_temperature;BME280_humidity;BME280_pressure;Samples;Min_cycle;Max_cycle;Signal;HPM_P1;HPM_P2
2022/06/06 00:00:49;;;;;;;5.78;2.33;;;;;;;11.42;100.00;100262.75;4958212;28;20091;-72
2022/06/06 00:03:16;;;;;;;5.50;2.65;;;;;;;11.42;100.00;100260.00;4953234;28;20048;-75
2022/06/06 00:05:44;;;;;;;15.52;2.90;;;;;;;11.39;100.00;100249.59;4937981;29;20065;-75
2022/06/06 00:08:14;;;;;;;2.33;2.00;;;;;;;11.42;100.00;100255.38;4952546;29;20031;-74
2022/06/06 00:10:41;;;;;;;3.15;2.50;;;;;;;11.45;100.00;100254.00;4959908;28;20027;-75
2022/06/06 00:13:09;;;;;;;4.35;2.65;;;;;;;11.53;100.00;100267.13;4953262;28;20055;-74
2022/06/06 00:15:34;;;;;;;3.25;2.92;;;;;;;11.54;100.00;100274.25;4951671;28;20043;-73
2022/06/06 00:18:01;;;;;;;6.13;2.35;;;;;;;11.56;100.00;100277.50;4949680;28;20031;-74
2022/06/06 00:20:27;;;;;;;4.10;2.25;;;;;;;11.51;100.00;100261.09;4943172;29;20020;-75
2022/06/06 00:22:55;;;;;;;2.67;1.88;;;;;;;11.65;100.00;100275.03;4937146;29;20024;-73
2022/06/06 00:25:21;;;;;;;2.83;2.40;;;;;;;11.68;100.00;100272.59;4905801;29;20035;-75
2022/06/06 00:27:46;;;;;;;2.65;2.15;;;;;;;11.58;100.00;100263.53;4923365;29;20664;-75
2022/06/06 00:30:12;;;;;;;2.45;2.15;;;;;;;11.59;100.00;100266.00;4961528;28;20022;-74
2022/06/06 00:35:22;;;;;;;3.33;2.42;;;;;;;11.56;100.00;100255.59;4944854;28;20053;-73
2022/06/06 00:37:48;;;;;;;4.50;2.80;;;;;;;11.61;100.00;100263.81;4937350;29;20094;-73
2022/06/06 00:40:17;;;;;;;11.20;2.67;;;;;;;11.56;100.00;100261.09;4944108;28;20031;-73
2022/06/06 00:42:42;;;;;;;5.50;3.17;;;;;;;11.51;100.00;100248.22;4938270;28;20031;-73
2022/06/06 00:45:24;;;;;;;3.53;2.60;;;;;;;11.53;100.00;100251.53;4943166;28;20090;-74
2022/06/06 00:48:12;;;;;;;5.32;2.70;;;;;;;11.54;100.00;100255.06;4953646;28;20122;-73
2022/06/06 00:50:44;;;;;;;4.07;2.65;;;;;;;11.53;100.00;100250.69;4940237;29;20034;-73
2022/06/06 00:53:12;;;;;;;5.93;2.70;;;;;;;11.51;100.00;100253.69;4941281;28;20091;-74
2022/06/06 00:55:42;;;;;;;4.60;2.50;;;;;;;11.48;100.00;100239.75;4953274;28;20038;-73
2022/06/06 00:58:20;;;;;;;3.72;3.20;;;;;;;11.42;100.00;100236.19;4945368;28;20024;-75
2022/06/06 01:00:48;;;;;;;8.93;3.30;;;;;;;11.43;100.00;100239.75;4943903;28;20058;-74
2022/06/06 01:03:17;;;;;;;7.20;3.20;;;;;;;11.39;100.00;100238.66;4953128;28;20564;-73
2022/06/06 01:05:46;;;;;;;5.68;3.47;;;;;;;11.35;100.00;100239.22;4952384;28;20403;-73
2022/06/06 01:08:13;;;;;;;5.65;3.60;;;;;;;11.26;100.00;100229.94;4956693;28;20461;-73
2022/06/06 01:10:38;;;;;;;9.32;3.33;;;;;;;11.23;100.00;100235.94;4923566;29;20057;-73
2022/06/06 01:13:06;;;;;;;6.95;3.53;;;;;;;11.23;100.00;100230.47;4951278;28;20533;-75
2022/06/06 01:15:44;;;;;;;3.47;3.15;;;;;;;11.21;100.00;100231.84;4939605;29;20035;-75
2022/06/06 01:18:14;;;;;;;5.53;3.10;;;;;;;11.24;100.00;100243.06;4939477;29;20538;-74
2022/06/06 01:20:54;;;;;;;6.80;3.28;;;;;;;11.30;100.00;100232.91;4946206;28;20038;-75
2022/06/06 01:23:33;;;;;;;6.88;3.70;;;;;;;11.31;100.00;100243.59;4938664;29;20063;-72
2022/06/06 01:26:45;;;;;;;4.80;3.88;;;;;;;11.34;100.00;100243.03;4946226;28;20407;-74
2022/06/06 01:29:26;;;;;;;6.65;4.82;;;;;;;11.34;100.00;100232.09;4884308;28;20043;-74
2022/06/06 01:31:57;;;;;;;5.13;4.40;;;;;;;11.34;100.00;100229.34;4955782;28;20030;-73
2022/06/06 01:34:26;;;;;;;7.80;4.60;;;;;;;11.38;100.00;100234.31;4957547;28;20024;-74
2022/06/06 01:36:54;;;;;;;6.20;4.40;;;;;;;11.34;100.00;100221.13;4937337;29;20073;-76
2022/06/06 01:39:22;;;;;;;4.85;4.07;;;;;;;11.31;100.00;100224.44;4940318;28;20501;-74
2022/06/06 01:42:06;;;;;;;4.93;4.07;;;;;;;11.39;100.00;100230.44;4960491;28;20054;-74
2022/06/06 01:44:53;;;;;;;6.43;4.22;;;;;;;11.38;100.00;100232.38;4936384;29;20521;-73
2022/06/06 01:47:28;;;;;;;5.18;4.68;;;;;;;11.35;100.00;100228.25;4940112;28;20038;-74
2022/06/06 01:49:55;;;;;;;5.22;4.72;;;;;;;11.41;100.00;100236.47;4933100;28;20100;-74
2022/06/06 01:52:22;;;;;;;6.07;4.20;;;;;;;11.42;100.00;100227.16;4936442;29;20099;-74
2022/06/06 01:54:47;;;;;;;5.95;4.65;;;;;;;11.42;100.00;100235.38;4925340;29;20086;-74
2022/06/06 01:57:16;;;;;;;6.20;5.07;;;;;;;11.39;100.00;100228.53;4943691;28;20090;-74
2022/06/06 01:59:42;;;;;;;4.90;4.38;;;;;;;11.38;100.00;100226.91;4935464;29;20091;-73
2022/06/06 02:02:08;;;;;;;9.05;5.13;;;;;;;11.38;100.00;100226.91;4938444;29;20107;-74
2022/06/06 02:04:34;;;;;;;5.13;4.22;;;;;;;11.43;100.00;100231.53;4944000;29;20023;-74
2022/06/06 02:07:00;;;;;;;5.05;4.55;;;;;;;11.41;100.00;100231.81;4954639;28;20029;-74
2022/06/06 02:09:31;;;;;;;5.65;4.97;;;;;;;11.47;100.00;100229.91;4933006;29;20373;-74
2022/06/06 02:11:59;;;;;;;4.90;4.40;;;;;;;11.48;100.00;100239.75;4938106;29;20023;-73
2022/06/06 02:14:24;;;;;;;6.32;4.40;;;;;;;11.48;100.00;100231.53;4956607;28;20034;-73
2022/06/06 02:16:50;;;;;;;5.72;4.88;;;;;;;11.50;100.00;100235.63;4936588;29;20038;-74
2022/06/06 02:19:16;;;;;;;4.65;4.18;;;;;;;11.52;100.00;100240.81;4947951;28;20037;-73
2022/06/06 02:21:42;;;;;;;5.93;4.13;;;;;;;11.50;100.00;100229.34;4939237;29;20046;-74
2022/06/06 02:24:07;;;;;;;4.85;3.95;;;;;;;11.43;100.00;100215.09;4921732;29;20035;-74
2022/06/06 02:26:33;;;;;;;5.70;5.00;;;;;;;11.49;100.00;100227.69;4940353;29;20032;-72
2022/06/06 02:28:59;;;;;;;4.63;3.92;;;;;;;11.49;100.00;100231.25;4934011;29;20074;-73
2022/06/06 02:31:24;;;;;;;5.70;4.20;;;;;;;11.50;100.00;100223.84;4953218;28;20334;-75
2022/06/06 02:33:52;;;;;;;4.10;3.70;;;;;;;11.58;100.00;100231.53;4909939;29;20031;-74
2022/06/06 02:36:18;;;;;;;3.72;3.42;;;;;;;11.58;100.00;100219.72;4932123;29;20131;-74
2022/06/06 02:38:44;;;;;;;4.78;4.10;;;;;;;11.52;100.00;100210.69;4935750;29;20043;-73
2022/06/06 02:41:09;;;;;;;6.22;3.92;;;;;;;11.56;100.00;100217.28;4935152;28;20090;-73
2022/06/06 02:43:42;;;;;;;5.38;4.03;;;;;;;11.57;100.00;100218.09;4942790;29;20110;-73
2022/06/06 02:46:10;;;;;;;4.38;3.78;;;;;;;11.60;100.00;100218.34;4938226;29;20024;-73
2022/06/06 02:48:36;;;;;;;4.32;3.58;;;;;;;11.55;100.00;100210.16;4931913;28;20034;-74
2022/06/06 02:51:02;;;;;;;8.48;4.22;;;;;;;11.63;100.00;100215.06;4935864;28;20402;-75
2022/06/06 02:53:28;;;;;;;4.90;3.67;;;;;;;11.58;100.00;100209.63;4920029;29;20106;-74
2022/06/06 02:55:54;;;;;;;5.35;3.85;;;;;;;11.63;100.00;100223.28;4933631;29;20838;-74
2022/06/06 02:58:21;;;;;;;5.05;4.10;;;;;;;11.59;100.00;100205.75;4921148;29;20032;-74
2022/06/06 03:00:47;;;;;;;7.05;4.03;;;;;;;11.62;100.00;100210.69;4940118;28;20027;-73
2022/06/06 03:03:13;;;;;;;6.47;3.92;;;;;;;11.60;100.00;100210.16;4939732;28;20039;-73
2022/06/06 03:06:08;;;;;;;4.45;3.30;;;;;;;11.58;100.00;100209.63;4936724;28;20466;-74
2022/06/06 03:08:39;;;;;;;7.82;4.53;;;;;;;11.59;100.00;100205.75;4940229;29;20466;-73
2022/06/06 03:11:29;;;;;;;4.22;3.83;;;;;;;11.54;100.00;100203.03;4958903;28;20031;-73
2022/06/06 03:13:58;;;;;;;5.50;3.65;;;;;;;11.58;100.00;100203.28;4944191;28;20023;-77
2022/06/06 03:22:42;;;;;;;7.60;4.22;;;;;;;11.51;100.00;100209.09;4955751;28;20074;-75
2022/06/06 03:25:29;;;;;;;5.40;4.32;;;;;;;11.54;100.00;100219.47;4941478;29;20023;-76
2022/06/06 03:28:28;;;;;;;4.25;3.75;;;;;;;11.51;100.00;100220.84;4942570;28;20027;-75
2022/06/06 03:31:04;;;;;;;4.95;4.45;;;;;;;11.42;100.00;100216.19;4916228;29;20402;-75
2022/06/06 03:33:54;;;;;;;5.13;4.50;;;;;;;11.49;100.00;100222.22;4940024;29;20051;-75
2022/06/06 03:36:38;;;;;;;6.68;4.28;;;;;;;11.44;100.00;100208.53;4964710;28;20130;-76
2022/06/06 03:39:20;;;;;;;7.10;5.07;;;;;;;11.46;100.00;100200.88;4942691;29;20019;-74
2022/06/06 03:42:22;;;;;;;4.80;4.32;;;;;;;11.51;100.00;100209.09;4935749;29;20027;-75
2022/06/06 03:45:15;;;;;;;6.03;4.88;;;;;;;11.45;100.00;100189.09;4955691;28;20102;-73
2022/06/06 03:48:08;;;;;;;6.55;5.43;;;;;;;11.52;100.00;100210.69;4945132;29;20409;-72
2022/06/06 03:50:39;;;;;;;8.02;5.22;;;;;;;11.54;100.00;100205.78;4947084;28;20030;-74
2022/06/06 03:53:17;;;;;;;5.78;5.18;;;;;;;11.48;100.00;100199.50;4965902;28;20106;-75
2022/06/06 03:56:20;;;;;;;5.63;5.13;;;;;;;11.53;100.00;100215.09;4948068;28;20382;-74
2022/06/06 03:58:46;;;;;;;9.90;4.97;;;;;;;11.51;100.00;100215.38;4964131;28;20060;-74
2022/06/06 04:01:14;;;;;;;8.70;5.40;;;;;;;11.50;100.00;100213.72;4947675;28;20114;-73
2022/06/06 04:03:43;;;;;;;5.35;4.60;;;;;;;11.53;100.00;100217.81;4956666;28;20024;-75
2022/06/06 04:06:09;;;;;;;5.90;5.30;;;;;;;11.59;100.00;100221.38;4935323;29;20038;-73
2022/06/06 04:08:35;;;;;;;8.07;5.45;;;;;;;11.60;100.00;100226.56;4940062;28;20029;-74
2022/06/06 04:11:19;;;;;;;9.80;5.40;;;;;;;11.61;100.00;100222.75;4956595;28;20082;-75
2022/06/06 04:14:15;;;;;;;6.90;5.72;;;;;;;11.64;100.00;100229.59;4941827;28;20031;-74
2022/06/06 04:17:00;;;;;;;6.30;5.03;;;;;;;11.61;100.00;100220.00;4941082;29;20125;-75
2022/06/06 04:19:34;;;;;;;7.30;5.35;;;;;;;11.68;100.00;100231.50;4949191;28;20492;-74
2022/06/06 04:22:09;;;;;;;7.85;4.47;;;;;;;11.68;100.00;100231.50;4951011;28;20046;-76
2022/06/06 04:24:34;;;;;;;6.53;4.90;;;;;;;11.67;100.00;100235.31;4936626;29;20031;-75
2022/06/06 04:27:03;;;;;;;6.90;5.38;;;;;;;11.68;100.00;100236.97;4938467;29;20038;-73
2022/06/06 04:29:42;;;;;;;7.18;5.20;;;;;;;11.63;100.00;100226.00;4959018;28;20166;-76
2022/06/06 04:32:40;;;;;;;6.93;6.05;;;;;;;11.67;100.00;100234.50;4942486;28;20465;-75
2022/06/06 04:35:30;;;;;;;8.00;5.32;;;;;;;11.65;100.00;100237.53;4928548;29;20047;-75
2022/06/06 04:38:28;;;;;;;8.23;4.82;;;;;;;11.65;100.00;100234.78;4947766;28;20078;-76
2022/06/06 04:41:15;;;;;;;6.18;5.07;;;;;;;11.68;100.00;100242.44;4920265;29;20042;-75
2022/06/06 04:43:45;;;;;;;8.18;6.03;;;;;;;11.63;100.00;100236.97;4936765;29;20083;-75
2022/06/06 04:46:17;;;;;;;6.15;5.55;;;;;;;11.67;100.00;100254.50;4939889;29;20095;-76
2022/06/06 04:48:50;;;;;;;6.13;5.13;;;;;;;11.72;100.00;100247.38;4939029;29;20032;-74
2022/06/06 04:51:22;;;;;;;10.48;5.50;;;;;;;11.61;100.00;100235.59;4901878;29;20123;-75
2022/06/06 04:54:00;;;;;;;8.10;5.68;;;;;;;11.73;100.00;100254.50;4911641;29;20166;-74
2022/06/06 04:56:39;;;;;;;6.63;4.32;;;;;;;11.62;100.00;100231.78;4897674;29;20033;-74
2022/06/06 04:59:24;;;;;;;8.30;6.07;;;;;;;11.67;100.00;100243.53;4927756;29;20035;-74
2022/06/06 05:02:11;;;;;;;;;;;;;;;;;;;;;
2022/06/06 05:04:37;;;;;;;4.68;4.15;;;;;;;11.61;100.00;100214.53;4940888;29;20569;-76
2022/06/06 05:07:26;;;;;;;8.77;4.65;;;;;;;11.60;100.00;100212.06;4943425;29;20030;-72
2022/06/06 05:10:32;;;;;;;5.47;4.97;;;;;;;11.84;100.00;100239.66;4926932;29;20492;-76
2022/06/06 05:13:41;;;;;;;5.20;4.60;;;;;;;11.88;100.00;100241.56;4886183;29;20047;-74
2022/06/06 05:16:35;;;;;;;10.98;5.72;;;;;;;11.87;100.00;100239.09;4903800;29;20043;-75
2022/06/06 05:19:20;;;;;;;6.10;4.95;;;;;;;11.94;100.00;100255.28;4932151;29;20030;-73
2022/06/06 05:21:49;;;;;;;5.32;4.82;;;;;;;11.90;100.00;100244.03;4931698;29;20019;-76
2022/06/06 05:24:49;;;;;;;5.82;5.22;;;;;;;11.96;99.96;100247.59;4934158;29;20024;-74
2022/06/06 05:27:48;;;;;;;6.03;5.20;;;;;;;11.96;99.89;100236.63;4920493;29;20030;-74
2022/06/06 05:30:19;;;;;;;9.68;5.40;;;;;;;12.04;99.84;100244.28;4927469;29;20028;-75
2022/06/06 05:33:05;;;;;;;6.05;5.05;;;;;;;12.08;99.29;100256.31;4936277;29;20390;-75
2022/06/06 05:35:58;;;;;;;6.72;5.25;;;;;;;12.01;98.74;100240.16;4916394;29;20143;-77
2022/06/06 05:38:32;;;;;;;7.70;5.53;;;;;;;12.08;99.44;100255.50;4935485;29;20047;-75
2022/06/06 05:41:00;;;;;;;;;;;;;;;12.12;98.91;100253.81;4937396;29;20054;-74
2022/06/06 05:43:26;;;;;;;5.75;5.15;;;;;;;12.12;99.05;100257.41;4941083;29;20357;-73
2022/06/06 05:46:21;;;;;;;5.60;4.55;;;;;;;12.15;98.84;100250.53;4928575;29;20032;-73
2022/06/06 05:49:04;;;;;;;5.40;4.90;;;;;;;12.12;98.28;100242.88;4936333;29;20050;-77
2022/06/06 05:51:59;;;;;;;5.50;5.00;;;;;;;12.29;98.50;100254.28;4923661;29;20036;-75
2022/06/06 05:58:26;;;;;;;6.53;5.10;;;;;;;12.45;98.12;100251.50;4912949;29;20059;-73
2022/06/06 06:01:16;;;;;;;6.18;5.38;;;;;;;12.46;98.04;100255.88;4917743;29;20035;-74
2022/06/06 06:04:03;;;;;;;8.55;5.85;;;;;;;12.57;97.16;100263.75;4920193;29;20039;-74
2022/06/06 06:06:49;;;;;;;7.13;4.85;;;;;;;12.66;97.12;100260.41;4918277;29;20035;-74
2022/06/06 06:09:23;;;;;;;8.90;5.60;;;;;;;12.70;97.13;100256.84;4915456;29;20036;-75
2022/06/06 06:12:04;;;;;;;6.10;5.18;;;;;;;12.84;97.16;100250.69;4914956;29;20057;-74
2022/06/06 06:14:39;;;;;;;7.18;5.30;;;;;;;13.04;96.14;100267.00;4930169;29;20027;-72
2022/06/06 06:17:06;;;;;;;6.05;5.15;;;;;;;13.19;95.98;100257.03;4924042;29;20111;-71
2022/06/06 06:19:41;;;;;;;7.05;5.63;;;;;;;13.34;94.42;100250.56;4930188;29;20398;-72
2022/06/06 06:22:08;;;;;;;7.10;5.30;;;;;;;13.58;93.67;100264.34;4931094;29;20111;-74
2022/06/06 06:24:42;;;;;;;11.38;5.30;;;;;;;13.78;92.41;100266.09;4919962;29;20176;-77
2022/06/06 06:27:08;;;;;;;5.30;4.80;;;;;;;14.01;92.29;100269.16;4922988;29;20082;-72
2022/06/06 06:29:34;;;;;;;5.30;4.80;;;;;;;14.20;91.18;100277.44;4940794;29;20054;-72
2022/06/06 06:32:18;;;;;;;8.48;5.00;;;;;;;14.29;89.78;100275.66;4902785;29;20032;-74
2022/06/06 06:34:55;;;;;;;4.85;4.30;;;;;;;14.32;88.49;100283.31;4930929;29;20088;-74
2022/06/06 06:37:28;;;;;;;5.43;4.20;;;;;;;14.40;87.91;100271.69;4939598;28;20149;-73
2022/06/06 06:40:05;;;;;;;6.72;4.88;;;;;;;14.53;87.17;100283.06;4935915;28;20031;-77
2022/06/06 06:42:59;;;;;;;9.60;4.82;;;;;;;14.51;86.09;100269.59;4935491;29;20035;-73
2022/06/06 06:45:32;;;;;;;7.43;4.30;;;;;;;14.62;85.45;100275.81;4931534;29;20043;-73
2022/06/06 06:48:02;;;;;;;5.38;4.15;;;;;;;14.68;85.64;100279.31;4926679;29;20035;-73
2022/06/06 06:50:47;;;;;;;4.15;3.75;;;;;;;14.70;85.46;100277.88;4941979;28;20158;-73
2022/06/06 06:53:41;;;;;;;16.23;3.88;;;;;;;14.74;85.16;100289.94;4943861;28;20080;-74
2022/06/06 06:56:22;;;;;;;9.05;5.28;;;;;;;14.76;83.73;100298.75;4924773;28;20067;-77
2022/06/06 06:58:55;;;;;;;4.18;3.63;;;;;;;14.72;84.28;100297.69;4933441;28;20030;-75
2022/06/06 07:01:27;;;;;;;4.55;3.40;;;;;;;15.09;84.23;100304.28;4932825;29;20118;-75
2022/06/06 07:08:32;;;;;;;4.82;3.63;;;;;;;15.36;81.54;100294.50;4866386;29;20507;-73
2022/06/06 07:11:46;;;;;;;6.43;3.80;;;;;;;15.61;80.59;100306.19;4879765;29;20128;-74
2022/06/06 07:15:00;;;;;;;8.90;3.50;;;;;;;15.96;82.39;100301.16;4929179;29;20540;-74
2022/06/06 07:17:40;;;;;;;5.47;3.75;;;;;;;15.58;78.17;100271.81;4953666;28;20542;-73
2022/06/06 07:20:09;;;;;;;4.82;3.42;;;;;;;15.65;78.85;100290.69;4943657;28;20047;-73
2022/06/06 07:25:33;;;;;;;5.75;3.22;;;;;;;16.44;78.24;100295.25;4958610;28;20091;-76
2022/06/06 07:28:09;;;;;;;3.92;2.83;;;;;;;16.79;76.63;100301.09;4944591;28;20479;-75
2022/06/06 07:30:41;;;;;;;9.13;3.42;;;;;;;16.99;74.72;100299.03;4948266;28;20030;-74
2022/06/06 07:33:44;;;;;;;6.85;3.00;;;;;;;17.23;75.80;100299.56;4950012;28;20058;-74
2022/06/06 07:36:44;;;;;;;6.72;2.88;;;;;;;17.49;71.29;100301.66;4955352;28;20510;-76
2022/06/06 07:39:28;;;;;;;4.53;2.67;;;;;;;17.45;70.73;100306.22;4963577;28;20038;-73
2022/06/06 07:42:08;;;;;;;4.43;2.78;;;;;;;17.28;71.04;100291.13;4943966;28;20030;-74
2022/06/06 07:44:37;;;;;;;3.97;2.78;;;;;;;17.25;69.91;100302.81;4946941;28;20035;-76
2022/06/06 07:47:53;;;;;;;2.85;2.60;;;;;;;17.59;70.68;100301.41;4948073;28;20051;-75
2022/06/06 07:50:57;;;;;;;4.03;2.90;;;;;;;18.23;69.51;100307.75;4939369;28;20027;-75
2022/06/06 07:53:34;;;;;;;7.55;2.53;;;;;;;18.07;66.02;100315.66;4920205;28;20067;-75
2022/06/06 07:56:34;;;;;;;4.00;2.72;;;;;;;17.70;67.83;100317.75;4954689;28;20050;-74
2022/06/06 07:59:08;;;;;;;4.63;2.13;;;;;;;17.72;68.79;100307.97;4947565;28;20047;-74
2022/06/06 08:02:19;;;;;;;8.95;2.47;;;;;;;17.80;67.68;100307.22;4959025;28;20106;-74
2022/06/06 08:05:22;;;;;;;3.05;1.90;;;;;;;18.08;67.51;100307.06;4946440;28;20122;-74
2022/06/06 08:08:25;;;;;;;6.32;2.38;;;;;;;18.28;64.92;100311.19;4964533;28;20019;-73
2022/06/06 08:14:17;;;;;;;6.10;2.50;;;;;;;18.70;63.81;100321.06;4873354;29;20140;-74
2022/06/06 08:17:14;;;;;;;2.85;1.92;;;;;;;18.80;63.67;100315.22;4955831;28;20035;-74
2022/06/06 08:19:58;;;;;;;2.65;1.75;;;;;;;18.89;63.27;100318.81;4956708;28;20671;-73
2022/06/06 08:22:25;;;;;;;4.45;1.58;;;;;;;19.04;62.17;100302.84;4947718;28;20672;-73
2022/06/06 08:24:57;;;;;;;1.90;1.50;;;;;;;18.94;61.79;100307.59;4948986;28;20054;-74
2022/06/06 08:27:25;;;;;;;3.38;1.70;;;;;;;19.22;62.24;100321.13;4947295;28;20059;-75
2022/06/06 08:29:51;;;;;;;4.30;1.98;;;;;;;19.27;60.74;100320.94;4944827;28;20024;-73
2022/06/06 08:32:16;;;;;;;1.65;1.40;;;;;;;19.46;61.05;100320.59;4962080;28;20117;-73
2022/06/06 08:34:42;;;;;;;3.08;1.42;;;;;;;19.54;60.02;100308.69;4964399;28;20533;-73
2022/06/06 08:37:26;;;;;;;6.72;1.40;;;;;;;19.51;59.95;100319.63;4963710;28;20569;-76
2022/06/06 08:40:10;;;;;;;2.70;1.30;;;;;;;19.50;60.01;100321.56;4959684;28;20408;-74
2022/06/06 08:42:54;;;;;;;2.65;1.42;;;;;;;19.66;59.80;100319.09;4956830;28;20038;-75
2022/06/06 08:45:25;;;;;;;2.55;1.38;;;;;;;19.91;59.07;100324.91;4945771;28;20454;-74
2022/06/06 08:47:53;;;;;;;3.15;1.38;;;;;;;20.50;57.13;100321.41;4959354;28;20032;-74
2022/06/06 08:53:12;;;;;;;2.90;1.20;;;;;;;20.67;53.11;100328.81;4965341;28;20394;-74
2022/06/06 08:56:15;;;;;;;1.38;1.25;;;;;;;19.99;56.06;100331.56;4943815;28;20027;-75
2022/06/06 08:59:17;;;;;;;2.33;1.30;;;;;;;19.84;55.22;100324.63;4960577;28;20027;-75
2022/06/06 09:02:07;;;;;;;3.53;1.40;;;;;;;20.23;56.47;100331.00;4943336;28;20031;-75
2022/06/06 09:05:01;;;;;;;1.27;1.17;;;;;;;20.33;54.00;100330.63;4962963;28;20042;-73
2022/06/06 09:07:56;;;;;;;3.15;1.42;;;;;;;20.21;53.35;100327.75;4928172;28;20117;-74
2022/06/06 09:10:53;;;;;;;2.47;1.20;;;;;;;19.96;53.73;100321.16;4963935;28;20033;-74
2022/06/06 09:13:31;;;;;;;1.92;1.02;;;;;;;20.30;53.93;100328.53;4944816;28;20268;-76
2022/06/06 09:16:03;;;;;;;1.60;1.05;;;;;;;20.42;54.00;100327.00;4963749;28;20053;-72
2022/06/06 09:19:15;;;;;;;4.80;0.95;;;;;;;20.65;53.84;100335.84;4945220;28;20031;-76
2022/06/06 09:21:50;;;;;;;3.92;1.00;;;;;;;20.28;52.84;100327.22;4961993;28;20023;-73
2022/06/06 09:24:35;;;;;;;1.98;1.13;;;;;;;19.60;53.81;100312.09;4946410;28;20385;-73
2022/06/06 09:27:10;;;;;;;2.22;1.20;;;;;;;19.27;55.31;100329.25;4937500;28;20059;-74
2022/06/06 09:29:53;;;;;;;2.58;1.10;;;;;;;18.94;56.78;100331.69;4943297;28;20027;-75
2022/06/06 09:32:40;;;;;;;2.10;1.10;;;;;;;18.38;58.00;100343.28;4946080;28;20056;-75
2022/06/06 09:35:38;;;;;;;2.35;1.13;;;;;;;17.74;59.46;100327.03;4958849;28;20094;-74
2022/06/06 09:38:12;;;;;;;2.28;0.90;;;;;;;17.33;60.71;100337.16;4948269;28;20055;-74
2022/06/06 09:40:57;;;;;;;2.28;1.10;;;;;;;17.06;62.92;100338.09;4960683;28;20044;-74
2022/06/06 09:44:04;;;;;;;5.32;1.08;;;;;;;16.78;63.91;100320.72;4939172;28;20027;-74
2022/06/06 09:47:08;;;;;;;2.15;1.10;;;;;;;16.83;64.89;100338.00;4943332;28;20035;-74
2022/06/06 09:50:01;;;;;;;3.60;1.42;;;;;;;16.81;65.79;100348.56;4946639;28;20039;-74
2022/06/06 09:52:55;;;;;;;4.72;1.25;;;;;;;16.84;66.14;100342.41;4969273;28;20038;-74
2022/06/06 10:01:33;;;;;;;2.15;1.10;;;;;;;18.04;63.51;100327.38;4960330;28;20050;-75
2022/06/06 10:04:10;;;;;;;1.77;1.13;;;;;;;18.92;61.21;100339.53;4939628;28;20458;-75
2022/06/06 10:07:09;;;;;;;3.03;1.65;;;;;;;19.84;57.54;100335.72;4959589;28;20034;-76
2022/06/06 10:09:49;;;;;;;2.42;1.17;;;;;;;21.17;55.76;100340.22;4948975;28;20019;-73
2022/06/06 10:12:33;;;;;;;2.72;1.27;;;;;;;22.21;52.61;100337.53;4958336;28;20134;-75
2022/06/06 10:15:40;;;;;;;3.90;0.93;;;;;;;22.74;50.13;100338.47;4959132;28;20023;-74
2022/06/06 10:18:30;;;;;;;1.58;0.90;;;;;;;23.42;48.13;100339.72;4942094;28;20070;-74
2022/06/06 10:21:29;;;;;;;3.13;0.90;;;;;;;23.96;45.02;100345.94;4940817;28;20042;-72
2022/06/06 10:24:25;;;;;;;1.42;1.00;;;;;;;25.29;42.10;100348.25;4965070;28;20074;-73
2022/06/06 10:27:02;;;;;;;1.77;0.88;;;;;;;25.65;40.08;100340.59;4941918;28;20058;-73
2022/06/06 10:30:11;;;;;;;3.33;0.98;;;;;;;24.87;42.16;100338.59;4942220;28;20027;-76
2022/06/06 10:33:13;;;;;;;2.17;1.02;;;;;;;23.74;44.34;100339.75;4944099;28;20015;-73
2022/06/06 10:36:11;;;;;;;3.33;0.90;;;;;;;22.78;45.48;100338.56;4947123;28;20163;-74
2022/06/06 10:39:04;;;;;;;1.30;0.70;;;;;;;22.23;46.53;100332.44;4925450;29;20055;-73
2022/06/06 10:41:45;;;;;;;2.50;0.60;;;;;;;21.75;48.37;100337.59;4924265;29;20451;-72
2022/06/06 10:44:15;;;;;;;2.47;0.93;;;;;;;21.40;49.63;100337.91;4939033;29;20082;-74
2022/06/06 10:46:53;;;;;;;0.70;0.70;;;;;;;21.01;51.13;100338.09;4921406;29;20031;-73
2022/06/06 10:49:50;;;;;;;1.08;0.90;;;;;;;20.93;50.89;100325.88;4943124;29;20027;-73
2022/06/06 10:52:21;;;;;;;2.17;0.98;;;;;;;20.98;50.88;100338.75;4921828;29;20039;-75
2022/06/06 10:55:08;;;;;;;1.88;0.98;;;;;;;21.18;50.70;100342.66;4940635;29;20030;-74
2022/06/06 10:57:57;;;;;;;1.38;1.02;;;;;;;21.07;50.57;100335.88;4936087;29;20038;-73
2022/06/06 11:00:37;;;;;;;3.47;1.17;;;;;;;21.19;50.36;100337.94;4924561;29;20034;-74
2022/06/06 11:03:25;;;;;;;2.00;0.82;;;;;;;21.07;50.91;100339.50;4929123;29;20106;-74
2022/06/06 11:06:09;;;;;;;3.65;0.90;;;;;;;20.91;50.73;100339.28;4942548;29;20946;-75
2022/06/06 11:09:04;;;;;;;;;;;;;;;;;;;;;
2022/06/06 11:12:06;;;;;;;0.88;0.60;;;;;;;20.30;51.78;100342.41;4941452;29;20090;-75
2022/06/06 11:14:38;;;;;;;2.00;0.90;;;;;;;20.25;51.63;100345.34;4925665;29;20039;-74
2022/06/06 11:17:12;;;;;;;1.40;0.55;;;;;;;20.07;52.04;100336.28;4920159;29;20024;-74
2022/06/06 11:19:59;;;;;;;1.88;0.73;;;;;;;19.94;52.17;100337.31;4941161;29;20063;-73
2022/06/06 11:22:33;;;;;;;0.55;0.50;;;;;;;19.87;53.33;100341.44;4943134;28;20424;-76
2022/06/06 11:25:11;;;;;;;5.65;1.00;;;;;;;19.79;53.50;100322.84;4943133;29;20035;-73
2022/06/06 11:27:55;;;;;;;1.40;0.80;;;;;;;19.78;53.70;100328.69;4943100;29;20050;-74
2022/06/06 11:30:42;;;;;;;1.88;1.08;;;;;;;19.81;53.67;100344.69;4939766;29;20114;-74
2022/06/06 11:33:45;;;;;;;2.35;0.90;;;;;;;19.53;53.73;100343.09;4941466;28;20031;-75
2022/06/06 11:36:44;;;;;;;3.10;0.88;;;;;;;19.51;54.10;100327.94;4931167;28;20057;-76
2022/06/06 11:39:37;;;;;;;2.35;0.82;;;;;;;19.50;53.68;100320.75;4956822;28;20038;-75
2022/06/06 11:42:26;;;;;;;2.25;1.10;;;;;;;19.75;53.86;100323.81;4937694;28;20386;-76
2022/06/06 11:45:29;;;;;;;3.13;1.10;;;;;;;19.97;53.09;100339.44;4935113;28;20062;-74
2022/06/06 11:48:03;;;;;;;1.98;0.90;;;;;;;20.00;53.07;100345.13;4951202;28;20548;-74
2022/06/06 11:54:29;;;;;;;;;;;;;;;;;;;;;
2022/06/06 11:57:13;;;;;;;1.42;0.80;;;;;;;20.38;51.77;100344.34;4952046;28;20099;-74
2022/06/06 12:00:14;;;;;;;2.88;0.98;;;;;;;20.38;52.44;100338.78;4937519;29;20161;-74
2022/06/06 12:03:11;;;;;;;1.60;0.85;;;;;;;20.50;52.50;100351.13;4950856;28;20054;-76
2022/06/06 12:06:04;;;;;;;1.45;0.80;;;;;;;20.50;52.00;100340.84;4936037;28;20038;-74
2022/06/06 12:08:56;;;;;;;3.33;1.00;;;;;;;20.67;50.88;100339.94;4950443;28;20023;-74
2022/06/06 12:11:40;;;;;;;2.85;0.90;;;;;;;21.26;51.08;100344.56;4935435;28;20046;-74
2022/06/06 12:14:33;;;;;;;2.05;1.08;;;;;;;22.03;48.89;100342.50;4935423;28;20055;-76
2022/06/06 12:21:16;;;;;;;2.05;0.90;;;;;;;27.17;42.84;100355.88;4951215;28;20050;-74
2022/06/06 16:09:13;;;;;;;2.15;0.80;;;;;;;18.10;57.79;100310.31;1402889;23;20481;-78
2022/06/06 16:29:41;;;;;;;;;;;;;;;;;;;;;
2022/06/06 16:32:38;;;;;;;2.50;1.20;;;;;;;18.21;57.92;100283.16;4858753;29;20095;-76
2022/06/06 16:35:25;;;;;;;1.10;0.88;;;;;;;18.55;57.65;100306.53;4895228;29;20031;-76
2022/06/06 16:38:35;;;;;;;3.30;1.17;;;;;;;18.73;57.05;100292.72;4948434;28;20051;-82
2022/06/06 16:47:54;;;;;;;4.32;1.00;;;;;;;19.02;57.00;100300.41;4959667;28;20458;-78
2022/06/06 16:47:59;;;;;;;1.63;0.90;;;;;;;19.71;54.33;100299.50;4885571;29;20185;-79
2022/06/06 16:50:53;;;;;;;5.10;1.20;;;;;;;19.89;54.15;100299.47;4878217;29;20119;-81
2022/06/06 16:56:57;;;;;;;2.97;1.30;;;;;;;20.57;52.63;100301.41;4871618;29;20552;-79
2022/06/06 17:00:23;;;;;;;;;;;;;;;;;;;;;
2022/06/06 17:03:15;;;;;;;2.30;0.90;;;;;;;22.08;50.84;100293.00;4954087;28;20110;-84
2022/06/06 17:22:43;;;;;;;;;;;;;;;;;;;;;
2022/06/06 17:29:20;;;;;;;;;;;;;;;;;;;;;
2022/06/06 17:31:48;;;;;;;5.45;1.77;;;;;;;21.34;49.04;100280.88;6171268;23;20040;-76
2022/06/06 17:35:12;;;;;;;;;;;;;;;;;;;;;
2022/06/06 17:37:56;;;;;;;4.18;1.30;;;;;;;20.90;50.31;100279.28;6169462;23;20538;-76
2022/06/06 17:40:40;;;;;;;;;;;;;;;;;;;;;
2022/06/06 17:43:13;;;;;;;2.83;1.30;;;;;;;20.77;51.32;100252.59;6169961;23;20029;-77
2022/06/06 17:49:32;;;;;;;3.63;1.33;;;;;;;23.86;47.71;100278.31;6154305;23;20093;-76
2022/06/06 17:52:39;;;;;;;;;;;;;;;;;;;;;